createdAt,value
2023-12-11T00:03:00.043Z,75.35
2023-12-11T00:08:01.789Z,75.35
2023-12-11T00:13:04.294Z,76.59
2023-12-11T00:18:07.118Z,73.57
2023-12-11T00:23:09.113Z,73.00
2023-12-11T00:28:10.848Z,72.12
2023-12-11T00:33:12.725Z,71.56
2023-12-11T00:38:14.493Z,73.08
2023-12-11T00:43:16.365Z,72.98
2023-12-11T00:48:18.169Z,74.24
2023-12-11T00:53:19.939Z,74.89
2023-12-11T00:58:21.654Z,76.60
2023-12-11T01:03:24.108Z,74.28
2023-12-11T01:08:28.948Z,71.64
2023-12-11T01:13:30.721Z,73.86
2023-12-11T01:18:32.539Z,72.38
2023-12-11T01:23:34.443Z,71.94
2023-12-11T01:29:01.377Z,73.31
2023-12-11T01:34:03.270Z,73.01
2023-12-11T01:39:04.999Z,71.50
2023-12-11T01:44:06.764Z,70.04
2023-12-11T01:49:10.043Z,73.67
2023-12-11T01:54:12.048Z,71.29
2023-12-11T01:59:15.069Z,74.67
2023-12-11T02:04:17.291Z,73.05
2023-12-11T02:09:19.232Z,73.18
2023-12-11T02:14:20.986Z,76.24
2023-12-11T02:19:22.805Z,74.07
2023-12-11T02:24:31.593Z,72.68
2023-12-11T02:29:33.354Z,74.23
2023-12-11T02:34:35.204Z,71.33
2023-12-11T02:39:37.019Z,75.92
2023-12-11T02:44:38.860Z,71.19
2023-12-11T02:49:40.719Z,76.41
2023-12-11T02:54:42.502Z,74.27
2023-12-11T02:59:44.202Z,75.63
2023-12-11T03:04:45.919Z,73.64
2023-12-11T03:09:47.683Z,78.91
2023-12-11T03:14:49.510Z,78.29
2023-12-11T03:19:51.326Z,75.16
2023-12-11T03:24:53.938Z,73.24
2023-12-11T03:29:55.720Z,74.58
2023-12-11T03:34:57.573Z,74.05
2023-12-11T03:39:59.410Z,74.53
2023-12-11T03:45:01.168Z,81.16
2023-12-11T03:50:02.943Z,82.94
2023-12-11T03:55:05.091Z,91.29
2023-12-11T04:00:07.852Z,90.39
2023-12-11T04:05:09.925Z,88.47
2023-12-11T04:10:11.907Z,85.95
2023-12-11T04:15:13.792Z,86.26
2023-12-11T04:20:15.606Z,86.00
2023-12-11T04:25:17.406Z,87.73
2023-12-11T04:30:19.137Z,89.99
2023-12-11T04:35:20.997Z,85.22
2023-12-11T04:40:22.690Z,80.62
2023-12-11T04:45:24.391Z,79.97
2023-12-11T04:50:26.149Z,79.44
2023-12-11T04:55:28.503Z,76.60
2023-12-11T05:00:30.250Z,76.09
2023-12-11T05:05:31.971Z,73.94
2023-12-11T05:10:34.108Z,74.68
2023-12-11T05:15:35.881Z,74.74
2023-12-11T05:20:37.636Z,73.25
2023-12-11T05:25:39.424Z,73.37
2023-12-11T05:30:41.223Z,74.34
2023-12-11T05:35:42.953Z,71.00
2023-12-11T05:40:44.750Z,72.45
2023-12-11T05:45:46.628Z,70.79
2023-12-11T05:50:48.471Z,70.60
2023-12-11T05:55:50.207Z,71.40
2023-12-11T06:00:52.019Z,72.55
2023-12-11T06:05:59.133Z,72.49
2023-12-11T06:11:00.843Z,73.70
2023-12-11T06:16:02.655Z,72.23
2023-12-11T06:21:04.653Z,69.26
2023-12-11T06:26:06.654Z,68.91
2023-12-11T06:31:08.414Z,71.04
2023-12-11T06:36:10.765Z,70.69
2023-12-11T06:41:12.529Z,72.59
2023-12-11T06:46:14.302Z,73.67
2023-12-11T06:51:17.349Z,70.37
2023-12-11T06:56:20.322Z,70.96
2023-12-11T07:01:22.401Z,70.56
2023-12-11T07:06:25.355Z,73.37
2023-12-11T07:11:27.380Z,74.71
2023-12-11T07:16:29.218Z,72.76
2023-12-11T07:21:31.370Z,71.57
2023-12-11T07:26:33.315Z,73.49
2023-12-11T07:31:35.239Z,78.13
2023-12-11T07:36:37.328Z,75.14
2023-12-11T07:41:39.247Z,77.80
2023-12-11T07:46:43.315Z,76.91
2023-12-11T07:51:45.560Z,74.47
2023-12-11T07:56:48.545Z,75.28
2023-12-11T08:01:53.433Z,74.17
2023-12-11T08:06:55.371Z,75.67
2023-12-11T08:11:57.189Z,75.74
2023-12-11T08:16:59.897Z,79.13
2023-12-11T08:22:02.163Z,72.56
2023-12-11T08:27:08.462Z,75.45
2023-12-11T08:32:11.037Z,72.59
2023-12-11T08:37:13.029Z,77.89
2023-12-11T08:42:14.804Z,73.25
2023-12-11T08:47:16.522Z,75.12
2023-12-11T08:52:18.433Z,74.52
2023-12-11T08:57:20.302Z,72.89
2023-12-11T09:02:22.183Z,72.56
2023-12-11T09:07:24.251Z,71.84
2023-12-11T09:12:32.882Z,71.97
2023-12-11T09:17:36.119Z,73.88
2023-12-11T09:22:41.438Z,73.02
2023-12-11T09:27:43.639Z,71.85
2023-12-11T09:32:46.174Z,72.98
2023-12-11T09:37:48.080Z,73.14
2023-12-11T09:42:52.115Z,72.59
2023-12-11T09:48:04.876Z,72.30
2023-12-11T09:53:13.108Z,71.69
2023-12-11T09:58:15.835Z,72.62
2023-12-11T10:03:17.715Z,69.45
2023-12-11T10:08:19.573Z,69.29
2023-12-11T10:13:25.673Z,72.00
2023-12-11T10:18:27.816Z,68.70
2023-12-11T10:23:29.691Z,70.91
2023-12-11T10:28:32.750Z,70.19
2023-12-11T10:33:35.281Z,67.59
2023-12-11T10:38:37.196Z,68.35
2023-12-11T10:48:50.470Z,67.69
2023-12-11T10:53:53.420Z,72.27
2023-12-11T10:58:55.949Z,72.90
2023-12-11T11:03:58.942Z,74.60
2023-12-11T11:09:07.269Z,72.52
2023-12-11T11:14:46.106Z,69.83
2023-12-11T11:20:20.623Z,69.40
2023-12-11T11:25:30.212Z,70.05
2023-12-11T11:30:47.207Z,70.64
2023-12-11T11:35:51.031Z,69.67
2023-12-11T11:40:54.158Z,70.25
2023-12-11T11:45:57.255Z,66.73
2023-12-11T11:50:59.067Z,67.27
2023-12-11T11:56:02.061Z,67.28
2023-12-11T12:01:05.222Z,66.78
2023-12-11T12:06:08.084Z,66.34
2023-12-11T12:11:12.280Z,64.95
2023-12-11T12:16:28.103Z,64.38
2023-12-11T12:21:29.995Z,65.89
2023-12-11T12:26:35.411Z,66.08
2023-12-11T12:31:40.879Z,66.98
2023-12-11T12:36:43.747Z,66.62
2023-12-11T12:41:50.933Z,73.20
2023-12-11T12:46:54.408Z,75.60
2023-12-11T12:51:56.257Z,75.43
2023-12-11T12:57:00.173Z,73.73
2023-12-11T13:02:02.337Z,72.24
2023-12-11T13:07:12.049Z,72.03
2023-12-11T13:12:22.174Z,70.99
2023-12-11T13:17:24.681Z,70.25
2023-12-11T13:22:26.592Z,69.99
2023-12-11T13:27:30.659Z,73.35
2023-12-11T13:32:32.799Z,71.70
2023-12-11T13:37:34.963Z,72.10
2023-12-11T13:42:37.510Z,68.30
2023-12-11T13:47:39.830Z,70.97
2023-12-11T13:52:41.891Z,68.59
2023-12-11T13:57:43.922Z,70.22
2023-12-11T14:03:00.489Z,67.29
2023-12-11T14:08:06.708Z,65.06
2023-12-11T14:13:13.909Z,65.16
2023-12-11T14:18:16.090Z,64.80
2023-12-11T14:23:17.878Z,65.59
2023-12-11T14:28:19.903Z,64.49
2023-12-11T14:33:21.707Z,66.27
2023-12-11T14:38:23.536Z,66.85
2023-12-11T14:43:26.427Z,67.82
2023-12-11T14:48:28.267Z,69.27
2023-12-11T14:53:30.332Z,68.21
2023-12-11T14:58:36.003Z,68.03
2023-12-11T15:04:28.212Z,67.27
2023-12-11T15:09:33.698Z,67.59
2023-12-11T15:14:38.445Z,68.60
2023-12-11T15:19:42.367Z,67.33
2023-12-11T15:24:44.333Z,64.33
2023-12-11T15:29:46.014Z,64.10
2023-12-11T15:34:47.661Z,64.70
2023-12-11T15:39:49.454Z,64.13
2023-12-11T15:44:51.411Z,61.02
2023-12-11T15:49:53.435Z,60.58
2023-12-11T15:54:55.923Z,62.03
2023-12-11T15:59:57.657Z,57.27
2023-12-11T16:04:59.977Z,58.93
2023-12-11T16:10:01.909Z,65.25
2023-12-11T16:15:04.076Z,63.77
2023-12-11T16:20:06.948Z,63.55
2023-12-11T16:25:11.492Z,63.07
2023-12-11T16:30:13.856Z,66.76
2023-12-11T16:35:15.565Z,64.75
2023-12-11T16:40:18.561Z,67.72
2023-12-11T16:45:21.023Z,66.94
2023-12-11T16:50:23.542Z,66.80
2023-12-11T16:55:25.497Z,66.09
2023-12-11T17:00:27.229Z,65.74
2023-12-11T17:05:29.042Z,67.57
2023-12-11T17:10:30.775Z,65.31
2023-12-11T17:15:32.444Z,66.24
2023-12-11T17:20:34.100Z,71.21
2023-12-11T17:25:35.910Z,68.39
2023-12-11T17:30:37.813Z,67.73
2023-12-11T17:35:40.554Z,67.02
2023-12-11T17:40:43.152Z,68.07
2023-12-11T17:45:45.203Z,67.29
2023-12-11T17:50:46.928Z,66.98
2023-12-11T17:55:48.624Z,70.11
2023-12-11T18:00:50.463Z,74.04
2023-12-11T18:05:52.272Z,69.83
2023-12-11T18:10:54.122Z,70.21
2023-12-11T18:15:56.050Z,69.59
2023-12-11T18:20:58.206Z,68.68
2023-12-11T18:26:00.081Z,70.05
2023-12-11T18:31:01.966Z,70.20
2023-12-11T18:36:04.148Z,69.60
2023-12-11T18:41:06.727Z,70.23
2023-12-11T18:46:08.695Z,66.97
2023-12-11T18:51:10.651Z,67.41
2023-12-11T18:56:19.556Z,68.16
2023-12-11T19:01:22.454Z,70.13
2023-12-11T19:06:24.475Z,69.85
2023-12-11T19:11:28.527Z,73.06
2023-12-11T19:16:30.602Z,72.01
2023-12-11T19:21:32.443Z,71.24
2023-12-11T19:26:36.377Z,72.06
2023-12-11T19:31:42.283Z,73.33
2023-12-11T19:37:05.417Z,71.92
2023-12-11T19:42:07.254Z,71.32
2023-12-11T19:47:08.934Z,71.83
2023-12-11T19:52:10.608Z,72.11
2023-12-11T19:57:12.368Z,69.35
2023-12-11T20:02:14.276Z,70.79
2023-12-11T20:07:16.157Z,70.12
2023-12-11T20:12:18.478Z,72.86
2023-12-11T20:17:22.946Z,72.63
2023-12-11T20:22:25.264Z,71.94
2023-12-11T20:27:27.131Z,72.93
2023-12-11T20:32:28.872Z,72.24
2023-12-11T20:37:30.886Z,73.15
2023-12-11T20:42:32.779Z,74.80
2023-12-11T20:47:34.645Z,77.18
2023-12-11T20:52:36.734Z,77.85
2023-12-11T20:57:38.481Z,80.40
2023-12-11T21:02:42.328Z,80.71
2023-12-11T21:07:44.675Z,82.41
2023-12-11T21:12:46.449Z,78.14
2023-12-11T21:17:48.209Z,79.91
2023-12-11T21:22:49.924Z,83.01
2023-12-11T21:27:51.601Z,78.46
2023-12-11T21:32:53.461Z,78.27
2023-12-11T21:37:55.218Z,77.71
2023-12-11T21:42:56.959Z,79.45
2023-12-11T21:47:59.017Z,77.50
2023-12-11T21:53:01.505Z,78.13
2023-12-11T21:58:03.498Z,78.88
2023-12-11T22:03:05.239Z,81.26
2023-12-11T22:08:07.166Z,79.47
2023-12-11T22:13:09.480Z,78.69
2023-12-11T22:18:11.477Z,78.36
2023-12-11T22:23:13.962Z,79.39
2023-12-11T22:28:15.688Z,76.61
2023-12-11T22:33:17.437Z,75.06
2023-12-11T22:38:19.151Z,74.64
2023-12-11T22:43:20.952Z,73.24
2023-12-11T22:48:22.980Z,76.56
2023-12-11T22:53:24.868Z,77.38
2023-12-11T22:58:26.790Z,79.30
2023-12-11T23:03:28.696Z,79.82
2023-12-11T23:08:30.660Z,78.11
2023-12-11T23:13:32.612Z,78.68
2023-12-11T23:18:34.704Z,78.16
2023-12-11T23:23:36.975Z,79.71
2023-12-11T23:28:38.905Z,78.35
2023-12-11T23:33:41.020Z,73.98
2023-12-11T23:38:43.158Z,74.12
2023-12-11T23:43:45.060Z,76.91
2023-12-11T23:48:47.103Z,78.20
2023-12-11T23:53:49.148Z,76.52
2023-12-11T23:58:50.901Z,76.13
